Loppet Subaru Orford | Zone4.ca



Loppet Subaru Orford

Date: Feb 14, 2010
Official  Results
Location: Parc du Mont-Orford
Host Club: Club de ski de fond Orford

Jury
Technical Delegate:  Daniel Deschênes 
Chief of Competition:  René Pomerleau 
Chief of Course:   
Coach:  François Pépin 
Coach:   
Obs. Time: 9h30
Wind Vel:  15 km/h Wind Dir: nord
Air Temp: -9 Snow Temp: -7
Weather: neige légère Snow Cond: nouvelle neige

Maitre Homme 15 km. Free Mass Start    
PL Bib Name Club DOB SubCategory Rnk Time Diff
1 226 Phil Shaw Fondeurs-Laurentides 1966 Maitre Homme 40-49 1/23 0:42:04.1  
2 124 Justin Demers Skinouk 1987 Senior Sport Homme 1/4 0:43:32.2 +1:28.1
3 264 François Piuze Coureur Nordique 1971 Maitre Homme 30-39 1/14 0:44:51.1 +2:47.0
3 229 Sacha Desfosses Salomon Espresso sports 1969 Maitre Homme 40-49 2/23 0:44:51.1 +2:47.0
5 258 Nicolas Bouveret Sports Organisation Laurentides 1972 Maitre Homme 30-39 2/14 0:46:26.2 +4:22.1
6 230 Michel Labrie Skimco 1962 Maitre Homme 40-49 3/23 0:46:34.3 +4:30.2
7 239 Gaétan Beaulieu Maitres La Vie Sportive 1954 Maitre Homme 50-59 1/14 0:46:39.1 +4:35.0
8 266 Stéphane Martel ARSNM-Skimau 1971 Maitre Homme 30-39 3/14 0:47:02.1 +4:58.0
9 260 Martin Ladouceur Le Coureur 1970 Maitre Homme 30-39 4/14 0:47:36.3 +5:32.2
10 243 Pierre-Olivier Boily Siboire 1982 Senior Sport Homme 2/4 0:47:57.8 +5:53.7
11 241 Yves DeGuire AMSFQ 1962 Maitre Homme 40-49 4/23 0:48:10.2 +6:06.1
12 277 Martin Lamontagne Lacasse Mont-Orford 1973 Maitre Homme 30-39 5/14 0:48:16.5 +6:12.4
13 251 André Gauvin Rossignol 1957 Maitre Homme 50-59 2/14 0:48:16.9 +6:12.8
14 262 Kevin Jones Nakkertok nordic 1959 Maitre Homme 50-59 3/14 0:48:27.2 +6:23.1
15 265 Bernard Vermette Club Nordique M.S.A. 1964 Maitre Homme 40-49 5/23 0:48:27.4 +6:23.3
16 256 Frederic Gobeil Espresso Sports 1978 Maitre Homme 30-39 6/14 0:48:28.4 +6:24.3
17 227 Alexis Guigue Carleton University 1977 Maitre Homme 30-39 7/14 0:48:38.8 +6:34.7
18 235 Martin Paradis   1968 Maitre Homme 40-49 6/23 0:48:46.9 +6:42.8
19 234 Pierre Duchesne   1960 Maitre Homme 40-49 7/23 0:48:50.3 +6:46.2
20 278 Jean-Sébastien Zahra Mont-Orford 1972 Maitre Homme 30-39 8/14 0:48:51.2 +6:47.1
21 255 Jean-Philippe Thibault-Roberge Planète Sports Magog 1989 Senior Sport Homme 3/4 0:49:47.4 +7:43.3
22 247 Marc Cormier Espresso Sports 1969 Maitre Homme 40-49 8/23 0:49:56.0 +7:51.9
23 273 Frédéric Pouliot Le Coureur 1970 Maitre Homme 30-39 9/14 0:50:19.2 +8:15.1
24 90 Louis Vaillancourt     Maitre Homme 40-49 9/23 0:50:22.8 +8:18.7
25 228 Mark Comaniuk Skimco 1965 Maitre Homme 40-49 10/23 0:50:25.6 +8:21.5
26 231 Robert Faltus Cambridge Sports Union 1957 Maitre Homme 50-59 4/14 0:50:27.4 +8:23.3
27 275 Martin Portelance Le Norvégien 1971 Maitre Homme 30-39 10/14 0:50:36.7 +8:32.6
28 280 Robert Bernier Skimco 1953 Maitre Homme 50-59 5/14 0:50:38.2 +8:34.1
29 279 Ludo Bruyere Skiélite 1969 Maitre Homme 40-49 11/23 0:50:47.1 +8:43.0
30 238 Louis Belzile Maitres La Vie Sportive 1958 Maitre Homme 50-59 6/14 0:50:52.5 +8:48.4
31 232 Frederick Mousseau Skinergie Montreal 1969 Maitre Homme 40-49 12/23 0:50:55.7 +8:51.6
32 263 Claude Caille Skiélite 1958 Maitre Homme 50-59 7/14 0:51:17.0 +9:12.9
33 267 Francois Nuckle aucun 1964 Maitre Homme 40-49 13/23 0:51:17.8 +9:13.7
34 276 Michel Hamel Biathlon Estrie 1958 Maitre Homme 50-59 8/14 0:51:20.1 +9:16.0
35 253 Normand Mireault Maitres La Vie Sportive 1948 Maitre Homme 60-69 1/4 0:51:24.6 +9:20.5
36 270 Keven-Derick Auclair Savard Mont-Orford 1983 Senior Sport Homme 4/4 0:51:45.1 +9:41.0
37 268 Robert Primeau Memphremagog STF 1961 Maitre Homme 40-49 14/23 0:51:50.1 +9:46.0
38 250 Guy Vincent Espresso Sports 1968 Maitre Homme 40-49 15/23 0:52:09.1 +10:05.0
39 244 Martin Valiquette Mont-Orford 1970 Maitre Homme 30-39 11/14 0:52:11.8 +10:07.7
40 225 Marc Péloquin Montériski 1968 Maitre Homme 40-49 16/23 0:52:59.4 +10:55.3
41 252 Benjamin du Hays Skimco 1977 Maitre Homme 30-39 12/14 0:53:13.0 +11:08.9
42 85 Roger Girard     Maitre Homme 50-59 9/14 0:53:32.0 +11:27.9
43 261 Robert Leblanc Espresso Sports 1964 Maitre Homme 40-49 17/23 0:53:32.1 +11:28.0
44 87 Yannick De Ladurantaye     Maitre Homme 30-39 13/14 0:54:22.9 +12:18.8
45 269 Jacques Bilodeau Mont-Orford 1964 Maitre Homme 40-49 18/23 0:54:32.4 +12:28.3
46 245 Christian Briand Rapido 1960 Maitre Homme 40-49 19/23 0:54:35.1 +12:31.0
47 272 Patrice Jolicoeur indépendant 1966 Maitre Homme 40-49 20/23 0:56:04.3 +14:00.2
48 246 Pierre Lasserre Skimco 1950 Maitre Homme 50-59 10/14 0:56:05.6 +14:01.5
49 240 Réjean Charbonneau Skimco 1949 Maitre Homme 60-69 2/4 0:56:08.1 +14:04.0
50 257 Alain Leclair N/A 1969 Maitre Homme 40-49 21/23 0:57:43.3 +15:39.2
51 248 Daniel Adam Mont-Orford 1959 Maitre Homme 50-59 11/14 0:57:57.1 +15:53.0
52 274 Joel St-Louis Le Coureur 1961 Maitre Homme 40-49 22/23 0:58:08.2 +16:04.1
53 237 Jean Dufresne Mont-Orford 1947 Maitre Homme 60-69 3/4 0:59:12.4 +17:08.3
54 242 Ronald Faltus Madshus 1957 Maitre Homme 50-59 12/14 0:59:27.7 +17:23.6
55 254 Alain Beaudoin La Balade 1959 Maitre Homme 50-59 13/14 0:59:54.3 +17:50.2
56 271 Gary Duncan Skinergie Mauricie 1949 Maitre Homme 60-69 4/4 1:04:13.1 +22:09.0
57 249 Richard Morin skimco 1959 Maitre Homme 50-59 14/14 1:04:57.7 +22:53.6
58 84 Daniel Rabinkin     Maitre Homme 40-49 23/23 1:06:27.2 +24:23.1
59 259 Éric Rondeau Imco 1966 Maitre Homme 30-39 14/14 1:06:50.1 +24:46.0
DNF 233 Jean-Philippe Lavoie Le Norvégien 1976 Senior Sport Homme * *** ***
DNF 236 Frederic Beaulieu Mont-Orford 1978 Maitre Homme 30-39 * *** ***
DNF 282 Micael Boulet Triathlon Sherbrooke 1981 Senior Sport Homme * *** ***
DNS 281 Dominique Dansereau Mauriski 1969 Maitre Homme 40-49 * *** ***


Results are posted through an automated system by licenced clubs. For inquires about result corrections please contact the race organizer.

Copyright 2021 - Zone4 Systems zone4.ca       Privacy Policy     Delivery/Refund Policy     Terms of Service    Contact Zone4